Airport ID:K65S
Update Time (UTC):28 MAR 20 15:17
Wind Speed (Knots):6
Wind Direction (Magnetic):170
Temperature (°C):5
Dew Point (°C):0
Humidity (%):73
Altimeter (inHg):29.96
Density Altitude (Feet):
Visibility (Miles):10
Clouds (Hundreds of feet):OVC075
Present Weather:NO PRECIPITATION
METAR:METAR K65S 281515Z AUTO 18007KT 160V220 10SM OVC075 05/00 A2996 RMK AO2

The data displayed is for advisory purposes only and is not to be used for flight planning or operations.

This page is not automatically refreshed. Reload the page to see current data.